sensor_id;sensor_type;location;lat;lon;timestamp;P1;durP1;ratioP1;P2;durP2;ratioP2
72117;SDS011;59992;47.490;8.736;2023-04-03T00:00:39;4.30;;;2.80;;
72117;SDS011;59992;47.490;8.736;2023-04-03T00:03:30;6.30;;;2.80;;
72117;SDS011;59992;47.490;8.736;2023-04-03T00:06:21;4.70;;;3.00;;
72117;SDS011;59992;47.490;8.736;2023-04-03T00:09:12;5.30;;;3.10;;
72117;SDS011;59992;47.490;8.736;2023-04-03T00:12:02;5.20;;;3.20;;
72117;SDS011;59992;47.490;8.736;2023-04-03T00:14:52;4.00;;;2.60;;
72117;SDS011;59992;47.490;8.736;2023-04-03T00:17:42;3.70;;;2.40;;
72117;SDS011;59992;47.490;8.736;2023-04-03T00:20:33;4.00;;;2.30;;
72117;SDS011;59992;47.490;8.736;2023-04-03T00:23:23;5.20;;;3.00;;
72117;SDS011;59992;47.490;8.736;2023-04-03T00:26:13;6.60;;;3.60;;
72117;SDS011;59992;47.490;8.736;2023-04-03T00:29:04;6.70;;;4.40;;
72117;SDS011;59992;47.490;8.736;2023-04-03T00:31:54;6.60;;;3.90;;
72117;SDS011;59992;47.490;8.736;2023-04-03T00:34:44;8.00;;;4.30;;
72117;SDS011;59992;47.490;8.736;2023-04-03T00:37:35;6.40;;;3.80;;
72117;SDS011;59992;47.490;8.736;2023-04-03T00:40:25;7.10;;;3.70;;
72117;SDS011;59992;47.490;8.736;2023-04-03T00:43:16;6.70;;;3.80;;
72117;SDS011;59992;47.490;8.736;2023-04-03T00:46:08;6.40;;;3.70;;
72117;SDS011;59992;47.490;8.736;2023-04-03T00:48:58;7.00;;;4.20;;
72117;SDS011;59992;47.490;8.736;2023-04-03T00:51:48;6.70;;;4.00;;
72117;SDS011;59992;47.490;8.736;2023-04-03T00:54:38;6.90;;;4.00;;
72117;SDS011;59992;47.490;8.736;2023-04-03T00:57:32;8.10;;;4.90;;
72117;SDS011;59992;47.490;8.736;2023-04-03T01:00:23;9.20;;;5.10;;
72117;SDS011;59992;47.490;8.736;2023-04-03T01:03:14;9.70;;;5.20;;
72117;SDS011;59992;47.490;8.736;2023-04-03T01:06:04;9.00;;;5.30;;
72117;SDS011;59992;47.490;8.736;2023-04-03T01:08:54;7.40;;;5.00;;
72117;SDS011;59992;47.490;8.736;2023-04-03T01:11:46;8.60;;;5.50;;
72117;SDS011;59992;47.490;8.736;2023-04-03T01:14:36;7.80;;;4.90;;
72117;SDS011;59992;47.490;8.736;2023-04-03T01:17:30;9.20;;;5.70;;
72117;SDS011;59992;47.490;8.736;2023-04-03T01:20:41;9.00;;;5.90;;
72117;SDS011;59992;47.490;8.736;2023-04-03T01:24:00;7.80;;;4.90;;
72117;SDS011;59992;47.490;8.736;2023-04-03T01:26:59;9.00;;;5.40;;
72117;SDS011;59992;47.490;8.736;2023-04-03T01:29:51;9.20;;;5.40;;
72117;SDS011;59992;47.490;8.736;2023-04-03T01:32:41;9.40;;;5.60;;
72117;SDS011;59992;47.490;8.736;2023-04-03T01:35:32;8.70;;;5.70;;
72117;SDS011;59992;47.490;8.736;2023-04-03T01:38:22;9.60;;;5.60;;
72117;SDS011;59992;47.490;8.736;2023-04-03T01:41:12;9.10;;;6.20;;
72117;SDS011;59992;47.490;8.736;2023-04-03T01:44:03;9.10;;;5.50;;
72117;SDS011;59992;47.490;8.736;2023-04-03T01:46:54;9.10;;;5.50;;
72117;SDS011;59992;47.490;8.736;2023-04-03T01:49:44;13.50;;;6.00;;
72117;SDS011;59992;47.490;8.736;2023-04-03T01:52:34;7.70;;;5.70;;
72117;SDS011;59992;47.490;8.736;2023-04-03T01:55:24;7.90;;;5.40;;
72117;SDS011;59992;47.490;8.736;2023-04-03T01:58:14;8.00;;;5.20;;
72117;SDS011;59992;47.490;8.736;2023-04-03T02:01:04;6.80;;;4.50;;
72117;SDS011;59992;47.490;8.736;2023-04-03T02:03:55;8.70;;;5.20;;
72117;SDS011;59992;47.490;8.736;2023-04-03T02:06:45;8.60;;;5.30;;
72117;SDS011;59992;47.490;8.736;2023-04-03T02:09:35;6.30;;;4.50;;
72117;SDS011;59992;47.490;8.736;2023-04-03T02:12:25;7.70;;;4.60;;
72117;SDS011;59992;47.490;8.736;2023-04-03T02:15:15;7.60;;;4.90;;
72117;SDS011;59992;47.490;8.736;2023-04-03T02:18:06;7.80;;;4.30;;
72117;SDS011;59992;47.490;8.736;2023-04-03T02:20:57;7.80;;;4.80;;
72117;SDS011;59992;47.490;8.736;2023-04-03T02:23:47;7.60;;;5.00;;
72117;SDS011;59992;47.490;8.736;2023-04-03T02:26:37;6.30;;;4.20;;
72117;SDS011;59992;47.490;8.736;2023-04-03T02:29:28;8.50;;;4.50;;
72117;SDS011;59992;47.490;8.736;2023-04-03T02:32:18;6.20;;;4.00;;
72117;SDS011;59992;47.490;8.736;2023-04-03T02:35:09;7.60;;;4.80;;
72117;SDS011;59992;47.490;8.736;2023-04-03T02:38:00;6.40;;;3.90;;
72117;SDS011;59992;47.490;8.736;2023-04-03T02:40:50;6.80;;;3.90;;
72117;SDS011;59992;47.490;8.736;2023-04-03T02:43:40;6.30;;;4.10;;
72117;SDS011;59992;47.490;8.736;2023-04-03T02:46:30;6.90;;;4.60;;
72117;SDS011;59992;47.490;8.736;2023-04-03T02:49:21;6.90;;;4.00;;
72117;SDS011;59992;47.490;8.736;2023-04-03T02:52:12;8.20;;;4.50;;
72117;SDS011;59992;47.490;8.736;2023-04-03T02:55:03;7.60;;;4.40;;
72117;SDS011;59992;47.490;8.736;2023-04-03T02:57:53;7.80;;;4.40;;
72117;SDS011;59992;47.490;8.736;2023-04-03T03:00:44;6.90;;;4.60;;
72117;SDS011;59992;47.490;8.736;2023-04-03T03:03:34;7.50;;;4.50;;
72117;SDS011;59992;47.490;8.736;2023-04-03T03:06:24;8.10;;;4.50;;
72117;SDS011;59992;47.490;8.736;2023-04-03T03:09:15;6.90;;;4.50;;
72117;SDS011;59992;47.490;8.736;2023-04-03T03:12:05;6.50;;;4.50;;
72117;SDS011;59992;47.490;8.736;2023-04-03T03:14:55;6.20;;;4.10;;
72117;SDS011;59992;47.490;8.736;2023-04-03T03:17:48;7.50;;;4.70;;
72117;SDS011;59992;47.490;8.736;2023-04-03T03:20:39;7.10;;;4.70;;
72117;SDS011;59992;47.490;8.736;2023-04-03T03:23:30;6.90;;;5.00;;
72117;SDS011;59992;47.490;8.736;2023-04-03T03:26:21;8.50;;;4.60;;
72117;SDS011;59992;47.490;8.736;2023-04-03T03:29:11;8.10;;;4.70;;
72117;SDS011;59992;47.490;8.736;2023-04-03T03:32:01;7.80;;;5.10;;
72117;SDS011;59992;47.490;8.736;2023-04-03T03:34:52;7.00;;;4.30;;
72117;SDS011;59992;47.490;8.736;2023-04-03T03:37:42;6.50;;;4.40;;
72117;SDS011;59992;47.490;8.736;2023-04-03T03:40:32;8.30;;;4.90;;
72117;SDS011;59992;47.490;8.736;2023-04-03T03:43:22;8.20;;;5.20;;
72117;SDS011;59992;47.490;8.736;2023-04-03T03:46:13;7.30;;;4.40;;
72117;SDS011;59992;47.490;8.736;2023-04-03T03:49:03;7.50;;;5.00;;
72117;SDS011;59992;47.490;8.736;2023-04-03T03:51:54;9.00;;;5.50;;
72117;SDS011;59992;47.490;8.736;2023-04-03T03:54:44;7.60;;;4.70;;
72117;SDS011;59992;47.490;8.736;2023-04-03T03:57:34;7.80;;;4.60;;
72117;SDS011;59992;47.490;8.736;2023-04-03T04:00:24;7.10;;;4.40;;
72117;SDS011;59992;47.490;8.736;2023-04-03T04:03:15;7.60;;;5.30;;
72117;SDS011;59992;47.490;8.736;2023-04-03T04:06:05;7.50;;;4.60;;
72117;SDS011;59992;47.490;8.736;2023-04-03T04:08:55;8.70;;;5.40;;
72117;SDS011;59992;47.490;8.736;2023-04-03T04:11:46;7.50;;;4.70;;
72117;SDS011;59992;47.490;8.736;2023-04-03T04:14:36;7.90;;;5.00;;
72117;SDS011;59992;47.490;8.736;2023-04-03T04:17:26;10.00;;;5.20;;
72117;SDS011;59992;47.490;8.736;2023-04-03T04:20:16;9.20;;;5.40;;
72117;SDS011;59992;47.490;8.736;2023-04-03T04:23:07;8.60;;;4.90;;
72117;SDS011;59992;47.490;8.736;2023-04-03T04:25:57;8.70;;;4.70;;
72117;SDS011;59992;47.490;8.736;2023-04-03T04:28:47;8.50;;;5.10;;
72117;SDS011;59992;47.490;8.736;2023-04-03T04:31:38;8.40;;;5.10;;
72117;SDS011;59992;47.490;8.736;2023-04-03T04:34:28;7.80;;;4.40;;
72117;SDS011;59992;47.490;8.736;2023-04-03T04:37:19;7.10;;;4.30;;
72117;SDS011;59992;47.490;8.736;2023-04-03T04:40:10;7.50;;;4.40;;
72117;SDS011;59992;47.490;8.736;2023-04-03T04:43:01;7.50;;;4.50;;
72117;SDS011;59992;47.490;8.736;2023-04-03T04:46:00;7.50;;;4.60;;
72117;SDS011;59992;47.490;8.736;2023-04-03T04:48:52;7.70;;;3.90;;
72117;SDS011;59992;47.490;8.736;2023-04-03T04:51:42;8.20;;;3.70;;
72117;SDS011;59992;47.490;8.736;2023-04-03T04:54:33;6.00;;;3.50;;
72117;SDS011;59992;47.490;8.736;2023-04-03T04:57:23;8.30;;;3.90;;
72117;SDS011;59992;47.490;8.736;2023-04-03T05:00:15;6.40;;;3.60;;
72117;SDS011;59992;47.490;8.736;2023-04-03T05:03:06;6.60;;;3.50;;
72117;SDS011;59992;47.490;8.736;2023-04-03T05:05:56;5.90;;;3.40;;
72117;SDS011;59992;47.490;8.736;2023-04-03T05:08:46;6.80;;;3.80;;
72117;SDS011;59992;47.490;8.736;2023-04-03T05:11:36;6.50;;;3.70;;
72117;SDS011;59992;47.490;8.736;2023-04-03T05:14:26;4.90;;;3.40;;
72117;SDS011;59992;47.490;8.736;2023-04-03T05:17:17;6.30;;;3.90;;
72117;SDS011;59992;47.490;8.736;2023-04-03T05:20:08;5.40;;;3.30;;
72117;SDS011;59992;47.490;8.736;2023-04-03T05:22:59;6.00;;;3.40;;
72117;SDS011;59992;47.490;8.736;2023-04-03T05:25:50;6.00;;;3.50;;
72117;SDS011;59992;47.490;8.736;2023-04-03T05:28:41;6.00;;;3.50;;
72117;SDS011;59992;47.490;8.736;2023-04-03T05:31:31;6.40;;;3.50;;
72117;SDS011;59992;47.490;8.736;2023-04-03T05:34:21;4.60;;;2.90;;
72117;SDS011;59992;47.490;8.736;2023-04-03T05:37:12;5.30;;;3.30;;
72117;SDS011;59992;47.490;8.736;2023-04-03T05:40:02;4.90;;;2.90;;
72117;SDS011;59992;47.490;8.736;2023-04-03T05:42:54;6.60;;;3.40;;
72117;SDS011;59992;47.490;8.736;2023-04-03T05:45:44;7.40;;;4.30;;
72117;SDS011;59992;47.490;8.736;2023-04-03T05:48:35;6.10;;;3.50;;
72117;SDS011;59992;47.490;8.736;2023-04-03T05:51:28;5.50;;;3.30;;
72117;SDS011;59992;47.490;8.736;2023-04-03T05:54:21;6.30;;;3.90;;
72117;SDS011;59992;47.490;8.736;2023-04-03T05:57:18;5.40;;;3.50;;
72117;SDS011;59992;47.490;8.736;2023-04-03T06:00:12;5.70;;;3.30;;
72117;SDS011;59992;47.490;8.736;2023-04-03T06:03:03;6.40;;;3.20;;
72117;SDS011;59992;47.490;8.736;2023-04-03T06:05:54;7.70;;;3.20;;
72117;SDS011;59992;47.490;8.736;2023-04-03T06:08:44;13.60;;;3.90;;
72117;SDS011;59992;47.490;8.736;2023-04-03T06:11:34;7.70;;;4.10;;
72117;SDS011;59992;47.490;8.736;2023-04-03T06:14:25;9.50;;;3.50;;
72117;SDS011;59992;47.490;8.736;2023-04-03T06:17:15;8.80;;;3.50;;
72117;SDS011;59992;47.490;8.736;2023-04-03T06:20:06;5.40;;;3.10;;
72117;SDS011;59992;47.490;8.736;2023-04-03T06:22:57;4.90;;;3.10;;
72117;SDS011;59992;47.490;8.736;2023-04-03T06:25:48;7.50;;;3.50;;
72117;SDS011;59992;47.490;8.736;2023-04-03T06:28:38;5.80;;;3.20;;
72117;SDS011;59992;47.490;8.736;2023-04-03T06:31:28;6.10;;;3.20;;
72117;SDS011;59992;47.490;8.736;2023-04-03T06:34:19;5.80;;;3.30;;
72117;SDS011;59992;47.490;8.736;2023-04-03T06:37:11;5.00;;;2.70;;
72117;SDS011;59992;47.490;8.736;2023-04-03T06:40:06;4.80;;;2.80;;
72117;SDS011;59992;47.490;8.736;2023-04-03T06:43:04;4.90;;;3.10;;
72117;SDS011;59992;47.490;8.736;2023-04-03T06:45:54;5.00;;;2.80;;
72117;SDS011;59992;47.490;8.736;2023-04-03T06:48:44;5.60;;;3.20;;
72117;SDS011;59992;47.490;8.736;2023-04-03T06:51:35;5.30;;;2.80;;
72117;SDS011;59992;47.490;8.736;2023-04-03T06:54:25;5.70;;;2.90;;
72117;SDS011;59992;47.490;8.736;2023-04-03T06:57:15;5.30;;;3.20;;
72117;SDS011;59992;47.490;8.736;2023-04-03T07:00:06;5.00;;;3.20;;
72117;SDS011;59992;47.490;8.736;2023-04-03T07:02:59;5.10;;;2.70;;
72117;SDS011;59992;47.490;8.736;2023-04-03T07:05:50;3.90;;;2.70;;
72117;SDS011;59992;47.490;8.736;2023-04-03T07:08:40;5.60;;;3.00;;
72117;SDS011;59992;47.490;8.736;2023-04-03T07:11:30;4.80;;;2.90;;
72117;SDS011;59992;47.490;8.736;2023-04-03T07:14:21;5.60;;;2.70;;
72117;SDS011;59992;47.490;8.736;2023-04-03T07:17:11;6.90;;;3.30;;
72117;SDS011;59992;47.490;8.736;2023-04-03T07:20:02;4.90;;;2.70;;
72117;SDS011;59992;47.490;8.736;2023-04-03T07:22:53;4.70;;;2.30;;
72117;SDS011;59992;47.490;8.736;2023-04-03T07:25:44;4.30;;;2.50;;
72117;SDS011;59992;47.490;8.736;2023-04-03T07:28:35;6.10;;;2.50;;
72117;SDS011;59992;47.490;8.736;2023-04-03T07:31:27;4.90;;;2.70;;
72117;SDS011;59992;47.490;8.736;2023-04-03T07:34:17;4.30;;;2.80;;
72117;SDS011;59992;47.490;8.736;2023-04-03T07:37:07;4.10;;;2.60;;
72117;SDS011;59992;47.490;8.736;2023-04-03T07:39:58;3.40;;;2.40;;
72117;SDS011;59992;47.490;8.736;2023-04-03T07:42:51;3.70;;;2.60;;
72117;SDS011;59992;47.490;8.736;2023-04-03T07:45:42;4.10;;;2.60;;
72117;SDS011;59992;47.490;8.736;2023-04-03T07:48:32;5.20;;;2.90;;
72117;SDS011;59992;47.490;8.736;2023-04-03T07:51:23;4.30;;;2.60;;
72117;SDS011;59992;47.490;8.736;2023-04-03T07:54:15;5.20;;;2.60;;
72117;SDS011;59992;47.490;8.736;2023-04-03T07:57:06;4.30;;;2.70;;
72117;SDS011;59992;47.490;8.736;2023-04-03T07:59:56;5.40;;;2.30;;
72117;SDS011;59992;47.490;8.736;2023-04-03T08:02:46;3.20;;;2.30;;
72117;SDS011;59992;47.490;8.736;2023-04-03T08:05:39;6.80;;;2.80;;
72117;SDS011;59992;47.490;8.736;2023-04-03T08:08:31;3.70;;;2.30;;
72117;SDS011;59992;47.490;8.736;2023-04-03T08:11:21;4.90;;;2.80;;
72117;SDS011;59992;47.490;8.736;2023-04-03T08:14:13;4.30;;;2.70;;
72117;SDS011;59992;47.490;8.736;2023-04-03T08:17:06;3.60;;;2.50;;
72117;SDS011;59992;47.490;8.736;2023-04-03T08:19:59;4.70;;;2.70;;
72117;SDS011;59992;47.490;8.736;2023-04-03T08:22:50;4.00;;;2.10;;
72117;SDS011;59992;47.490;8.736;2023-04-03T08:25:40;5.80;;;2.30;;
72117;SDS011;59992;47.490;8.736;2023-04-03T08:28:31;3.90;;;2.50;;
72117;SDS011;59992;47.490;8.736;2023-04-03T08:31:21;5.20;;;2.50;;
72117;SDS011;59992;47.490;8.736;2023-04-03T08:34:12;5.10;;;2.80;;
72117;SDS011;59992;47.490;8.736;2023-04-03T08:37:02;4.70;;;2.30;;
72117;SDS011;59992;47.490;8.736;2023-04-03T08:39:52;5.50;;;2.10;;
72117;SDS011;59992;47.490;8.736;2023-04-03T08:42:45;4.50;;;2.30;;
72117;SDS011;59992;47.490;8.736;2023-04-03T08:45:44;3.80;;;2.60;;
72117;SDS011;59992;47.490;8.736;2023-04-03T08:48:38;4.30;;;2.80;;
72117;SDS011;59992;47.490;8.736;2023-04-03T08:51:31;3.50;;;2.40;;
72117;SDS011;59992;47.490;8.736;2023-04-03T08:54:24;3.90;;;2.60;;
72117;SDS011;59992;47.490;8.736;2023-04-03T08:57:20;4.50;;;2.80;;
72117;SDS011;59992;47.490;8.736;2023-04-03T09:00:18;4.00;;;2.70;;
72117;SDS011;59992;47.490;8.736;2023-04-03T09:03:13;4.20;;;2.40;;
72117;SDS011;59992;47.490;8.736;2023-04-03T09:06:06;4.60;;;2.70;;
72117;SDS011;59992;47.490;8.736;2023-04-03T09:09:05;4.10;;;2.70;;
72117;SDS011;59992;47.490;8.736;2023-04-03T09:12:06;4.70;;;2.80;;
72117;SDS011;59992;47.490;8.736;2023-04-03T09:15:08;5.50;;;2.60;;
72117;SDS011;59992;47.490;8.736;2023-04-03T09:18:04;5.80;;;2.60;;
72117;SDS011;59992;47.490;8.736;2023-04-03T09:21:02;4.10;;;2.40;;
72117;SDS011;59992;47.490;8.736;2023-04-03T09:24:04;3.60;;;2.50;;
72117;SDS011;59992;47.490;8.736;2023-04-03T09:26:57;3.70;;;2.40;;
72117;SDS011;59992;47.490;8.736;2023-04-03T09:29:52;5.60;;;2.60;;
72117;SDS011;59992;47.490;8.736;2023-04-03T09:32:45;4.00;;;2.20;;
72117;SDS011;59992;47.490;8.736;2023-04-03T09:35:37;4.70;;;2.60;;
72117;SDS011;59992;47.490;8.736;2023-04-03T09:38:28;3.90;;;2.50;;
72117;SDS011;59992;47.490;8.736;2023-04-03T09:41:20;4.70;;;2.90;;
72117;SDS011;59992;47.490;8.736;2023-04-03T09:44:21;4.70;;;2.60;;
72117;SDS011;59992;47.490;8.736;2023-04-03T09:47:18;4.30;;;2.30;;
72117;SDS011;59992;47.490;8.736;2023-04-03T09:50:21;4.00;;;2.50;;
72117;SDS011;59992;47.490;8.736;2023-04-03T09:53:24;4.30;;;2.70;;
72117;SDS011;59992;47.490;8.736;2023-04-03T09:56:21;3.90;;;2.40;;
72117;SDS011;59992;47.490;8.736;2023-04-03T09:59:14;4.80;;;3.10;;
72117;SDS011;59992;47.490;8.736;2023-04-03T10:02:21;4.00;;;2.60;;
72117;SDS011;59992;47.490;8.736;2023-04-03T10:05:27;5.90;;;2.70;;
72117;SDS011;59992;47.490;8.736;2023-04-03T10:08:24;6.80;;;3.00;;
72117;SDS011;59992;47.490;8.736;2023-04-03T10:11:16;5.10;;;3.00;;
72117;SDS011;59992;47.490;8.736;2023-04-03T10:14:10;6.70;;;2.60;;
72117;SDS011;59992;47.490;8.736;2023-04-03T10:17:16;4.00;;;2.30;;
72117;SDS011;59992;47.490;8.736;2023-04-03T10:20:18;4.40;;;2.20;;
72117;SDS011;59992;47.490;8.736;2023-04-03T10:23:21;4.20;;;2.50;;
72117;SDS011;59992;47.490;8.736;2023-04-03T10:26:17;4.00;;;2.70;;
72117;SDS011;59992;47.490;8.736;2023-04-03T10:29:21;6.00;;;2.70;;
72117;SDS011;59992;47.490;8.736;2023-04-03T10:32:29;5.50;;;2.90;;
72117;SDS011;59992;47.490;8.736;2023-04-03T10:35:37;5.10;;;3.20;;
72117;SDS011;59992;47.490;8.736;2023-04-03T10:38:37;4.30;;;2.60;;
72117;SDS011;59992;47.490;8.736;2023-04-03T10:41:41;5.10;;;2.70;;
72117;SDS011;59992;47.490;8.736;2023-04-03T10:44:42;6.30;;;3.00;;
72117;SDS011;59992;47.490;8.736;2023-04-03T10:47:44;4.90;;;3.00;;
72117;SDS011;59992;47.490;8.736;2023-04-03T10:50:44;4.00;;;2.70;;
72117;SDS011;59992;47.490;8.736;2023-04-03T10:53:42;4.50;;;2.80;;
72117;SDS011;59992;47.490;8.736;2023-04-03T10:56:39;5.20;;;3.20;;
72117;SDS011;59992;47.490;8.736;2023-04-03T10:59:36;5.50;;;3.00;;
72117;SDS011;59992;47.490;8.736;2023-04-03T11:02:41;5.10;;;3.10;;
72117;SDS011;59992;47.490;8.736;2023-04-03T11:05:39;5.30;;;3.10;;
72117;SDS011;59992;47.490;8.736;2023-04-03T11:08:33;5.90;;;3.30;;
72117;SDS011;59992;47.490;8.736;2023-04-03T11:11:35;6.20;;;3.20;;
72117;SDS011;59992;47.490;8.736;2023-04-03T11:14:31;4.90;;;2.90;;
72117;SDS011;59992;47.490;8.736;2023-04-03T11:17:26;5.30;;;3.30;;
72117;SDS011;59992;47.490;8.736;2023-04-03T11:20:23;4.80;;;2.70;;
72117;SDS011;59992;47.490;8.736;2023-04-03T11:23:21;5.20;;;3.00;;
72117;SDS011;59992;47.490;8.736;2023-04-03T11:26:15;4.70;;;2.90;;
72117;SDS011;59992;47.490;8.736;2023-04-03T11:29:08;4.70;;;3.20;;
72117;SDS011;59992;47.490;8.736;2023-04-03T11:32:10;6.40;;;3.10;;
72117;SDS011;59992;47.490;8.736;2023-04-03T11:35:15;4.20;;;2.80;;
72117;SDS011;59992;47.490;8.736;2023-04-03T11:38:10;5.40;;;2.80;;
72117;SDS011;59992;47.490;8.736;2023-04-03T11:41:09;3.90;;;2.50;;
72117;SDS011;59992;47.490;8.736;2023-04-03T11:44:02;5.90;;;3.60;;
72117;SDS011;59992;47.490;8.736;2023-04-03T11:46:54;4.70;;;3.00;;
72117;SDS011;59992;47.490;8.736;2023-04-03T11:49:53;4.00;;;2.80;;
72117;SDS011;59992;47.490;8.736;2023-04-03T11:52:57;5.40;;;3.40;;
72117;SDS011;59992;47.490;8.736;2023-04-03T11:55:55;4.90;;;3.10;;
72117;SDS011;59992;47.490;8.736;2023-04-03T11:58:53;4.60;;;3.10;;
72117;SDS011;59992;47.490;8.736;2023-04-03T12:05:28;5.40;;;3.30;;
72117;SDS011;59992;47.490;8.736;2023-04-03T12:08:25;4.60;;;2.70;;
72117;SDS011;59992;47.490;8.736;2023-04-03T12:11:28;5.80;;;3.30;;
72117;SDS011;59992;47.490;8.736;2023-04-03T12:14:25;5.90;;;3.40;;
72117;SDS011;59992;47.490;8.736;2023-04-03T12:17:22;4.50;;;2.90;;
72117;SDS011;59992;47.490;8.736;2023-04-03T12:27:25;6.20;;;2.60;;
72117;SDS011;59992;47.490;8.736;2023-04-03T12:30:27;5.30;;;2.80;;
72117;SDS011;59992;47.490;8.736;2023-04-03T12:33:26;4.50;;;2.30;;
72117;SDS011;59992;47.490;8.736;2023-04-03T12:36:28;3.90;;;2.50;;
72117;SDS011;59992;47.490;8.736;2023-04-03T12:39:43;5.20;;;2.70;;
72117;SDS011;59992;47.490;8.736;2023-04-03T12:42:51;4.00;;;3.00;;
72117;SDS011;59992;47.490;8.736;2023-04-03T12:45:58;3.50;;;2.30;;
72117;SDS011;59992;47.490;8.736;2023-04-03T12:48:53;5.10;;;2.50;;
72117;SDS011;59992;47.490;8.736;2023-04-03T12:51:46;3.70;;;2.50;;
72117;SDS011;59992;47.490;8.736;2023-04-03T12:54:36;4.30;;;2.80;;
72117;SDS011;59992;47.490;8.736;2023-04-03T12:57:30;3.80;;;2.40;;
72117;SDS011;59992;47.490;8.736;2023-04-03T13:00:25;4.60;;;2.70;;
72117;SDS011;59992;47.490;8.736;2023-04-03T13:03:26;5.70;;;2.80;;
72117;SDS011;59992;47.490;8.736;2023-04-03T13:06:18;4.70;;;2.90;;
72117;SDS011;59992;47.490;8.736;2023-04-03T13:09:21;5.00;;;2.80;;
72117;SDS011;59992;47.490;8.736;2023-04-03T13:12:15;5.50;;;2.50;;
72117;SDS011;59992;47.490;8.736;2023-04-03T13:15:16;4.80;;;2.90;;
72117;SDS011;59992;47.490;8.736;2023-04-03T13:18:25;4.00;;;2.70;;
72117;SDS011;59992;47.490;8.736;2023-04-03T13:21:20;4.80;;;2.50;;
72117;SDS011;59992;47.490;8.736;2023-04-03T13:24:13;4.50;;;2.60;;
72117;SDS011;59992;47.490;8.736;2023-04-03T13:27:04;5.10;;;3.00;;
72117;SDS011;59992;47.490;8.736;2023-04-03T13:30:00;4.90;;;2.60;;
72117;SDS011;59992;47.490;8.736;2023-04-03T13:32:53;4.00;;;2.70;;
72117;SDS011;59992;47.490;8.736;2023-04-03T13:35:44;5.20;;;2.60;;
72117;SDS011;59992;47.490;8.736;2023-04-03T13:38:35;5.10;;;2.60;;
72117;SDS011;59992;47.490;8.736;2023-04-03T13:41:26;4.50;;;2.40;;
72117;SDS011;59992;47.490;8.736;2023-04-03T13:44:28;4.00;;;2.60;;
72117;SDS011;59992;47.490;8.736;2023-04-03T13:47:22;5.10;;;2.50;;
72117;SDS011;59992;47.490;8.736;2023-04-03T13:50:16;4.10;;;2.60;;
72117;SDS011;59992;47.490;8.736;2023-04-03T13:53:11;4.00;;;2.80;;
72117;SDS011;59992;47.490;8.736;2023-04-03T13:56:07;5.00;;;2.30;;
72117;SDS011;59992;47.490;8.736;2023-04-03T13:59:06;3.80;;;2.40;;
72117;SDS011;59992;47.490;8.736;2023-04-03T14:02:12;6.20;;;2.40;;
72117;SDS011;59992;47.490;8.736;2023-04-03T14:05:05;4.40;;;2.70;;
72117;SDS011;59992;47.490;8.736;2023-04-03T14:07:56;4.70;;;2.40;;
72117;SDS011;59992;47.490;8.736;2023-04-03T14:10:47;3.50;;;2.10;;
72117;SDS011;59992;47.490;8.736;2023-04-03T14:13:38;3.50;;;2.10;;
72117;SDS011;59992;47.490;8.736;2023-04-03T14:16:31;5.70;;;2.60;;
72117;SDS011;59992;47.490;8.736;2023-04-03T14:19:26;4.30;;;2.10;;
72117;SDS011;59992;47.490;8.736;2023-04-03T14:22:18;4.80;;;2.20;;
72117;SDS011;59992;47.490;8.736;2023-04-03T14:25:10;4.40;;;2.30;;
72117;SDS011;59992;47.490;8.736;2023-04-03T14:28:01;3.60;;;2.20;;
72117;SDS011;59992;47.490;8.736;2023-04-03T14:31:00;3.80;;;2.20;;
72117;SDS011;59992;47.490;8.736;2023-04-03T14:33:51;3.40;;;2.00;;
72117;SDS011;59992;47.490;8.736;2023-04-03T14:36:42;4.60;;;2.20;;
72117;SDS011;59992;47.490;8.736;2023-04-03T14:39:33;5.80;;;2.50;;
72117;SDS011;59992;47.490;8.736;2023-04-03T14:42:24;4.70;;;2.20;;
72117;SDS011;59992;47.490;8.736;2023-04-03T14:45:20;4.80;;;2.40;;
72117;SDS011;59992;47.490;8.736;2023-04-03T14:52:01;4.60;;;2.40;;
72117;SDS011;59992;47.490;8.736;2023-04-03T14:54:51;5.50;;;2.30;;
72117;SDS011;59992;47.490;8.736;2023-04-03T14:57:42;5.60;;;2.30;;
72117;SDS011;59992;47.490;8.736;2023-04-03T15:00:32;6.60;;;2.50;;
72117;SDS011;59992;47.490;8.736;2023-04-03T15:03:22;3.70;;;2.20;;
72117;SDS011;59992;47.490;8.736;2023-04-03T15:06:13;4.80;;;2.10;;
72117;SDS011;59992;47.490;8.736;2023-04-03T15:09:04;4.40;;;2.30;;
72117;SDS011;59992;47.490;8.736;2023-04-03T15:11:59;3.10;;;2.20;;
72117;SDS011;59992;47.490;8.736;2023-04-03T15:14:50;5.70;;;2.40;;
72117;SDS011;59992;47.490;8.736;2023-04-03T15:17:41;5.00;;;2.20;;
72117;SDS011;59992;47.490;8.736;2023-04-03T15:20:32;4.10;;;2.50;;
72117;SDS011;59992;47.490;8.736;2023-04-03T15:23:22;4.20;;;2.00;;
72117;SDS011;59992;47.490;8.736;2023-04-03T15:26:13;5.50;;;2.60;;
72117;SDS011;59992;47.490;8.736;2023-04-03T15:29:04;4.50;;;2.80;;
72117;SDS011;59992;47.490;8.736;2023-04-03T15:31:54;3.60;;;2.40;;
72117;SDS011;59992;47.490;8.736;2023-04-03T15:34:45;4.80;;;2.60;;
72117;SDS011;59992;47.490;8.736;2023-04-03T15:37:35;3.50;;;2.20;;
72117;SDS011;59992;47.490;8.736;2023-04-03T15:40:25;4.20;;;2.80;;
72117;SDS011;59992;47.490;8.736;2023-04-03T15:43:15;5.20;;;2.50;;
72117;SDS011;59992;47.490;8.736;2023-04-03T15:46:06;5.00;;;2.50;;
72117;SDS011;59992;47.490;8.736;2023-04-03T15:48:56;4.10;;;2.60;;
72117;SDS011;59992;47.490;8.736;2023-04-03T15:51:46;3.60;;;2.40;;
72117;SDS011;59992;47.490;8.736;2023-04-03T15:54:37;4.60;;;2.40;;
72117;SDS011;59992;47.490;8.736;2023-04-03T15:57:27;4.30;;;2.60;;
72117;SDS011;59992;47.490;8.736;2023-04-03T16:00:18;3.60;;;2.10;;
72117;SDS011;59992;47.490;8.736;2023-04-03T16:03:10;4.20;;;2.40;;
72117;SDS011;59992;47.490;8.736;2023-04-03T16:06:04;3.50;;;2.30;;
72117;SDS011;59992;47.490;8.736;2023-04-03T16:08:54;4.90;;;2.50;;
72117;SDS011;59992;47.490;8.736;2023-04-03T16:11:45;6.50;;;2.40;;
72117;SDS011;59992;47.490;8.736;2023-04-03T16:14:35;4.60;;;2.50;;
72117;SDS011;59992;47.490;8.736;2023-04-03T16:17:26;4.20;;;2.50;;
72117;SDS011;59992;47.490;8.736;2023-04-03T16:20:18;4.60;;;2.70;;
72117;SDS011;59992;47.490;8.736;2023-04-03T16:23:10;5.80;;;2.60;;
72117;SDS011;59992;47.490;8.736;2023-04-03T16:26:01;4.10;;;2.70;;
72117;SDS011;59992;47.490;8.736;2023-04-03T16:28:52;5.20;;;2.80;;
72117;SDS011;59992;47.490;8.736;2023-04-03T16:31:42;4.10;;;2.60;;
72117;SDS011;59992;47.490;8.736;2023-04-03T16:34:33;4.20;;;2.60;;
72117;SDS011;59992;47.490;8.736;2023-04-03T16:37:23;3.80;;;2.40;;
72117;SDS011;59992;47.490;8.736;2023-04-03T16:40:13;3.60;;;2.30;;
72117;SDS011;59992;47.490;8.736;2023-04-03T16:43:04;4.10;;;2.60;;
72117;SDS011;59992;47.490;8.736;2023-04-03T16:45:54;4.70;;;2.70;;
72117;SDS011;59992;47.490;8.736;2023-04-03T16:48:49;4.10;;;2.70;;
72117;SDS011;59992;47.490;8.736;2023-04-03T16:51:39;5.20;;;2.70;;
72117;SDS011;59992;47.490;8.736;2023-04-03T16:54:29;5.00;;;2.90;;
72117;SDS011;59992;47.490;8.736;2023-04-03T16:57:20;4.20;;;2.90;;
72117;SDS011;59992;47.490;8.736;2023-04-03T17:00:12;4.90;;;2.80;;
72117;SDS011;59992;47.490;8.736;2023-04-03T17:03:03;5.10;;;2.80;;
72117;SDS011;59992;47.490;8.736;2023-04-03T17:05:53;5.70;;;2.80;;
72117;SDS011;59992;47.490;8.736;2023-04-03T17:08:44;5.30;;;3.00;;
72117;SDS011;59992;47.490;8.736;2023-04-03T17:11:37;5.40;;;2.70;;
72117;SDS011;59992;47.490;8.736;2023-04-03T17:14:27;5.60;;;3.10;;
72117;SDS011;59992;47.490;8.736;2023-04-03T17:17:17;5.20;;;2.90;;
72117;SDS011;59992;47.490;8.736;2023-04-03T17:20:11;11.00;;;6.20;;
72117;SDS011;59992;47.490;8.736;2023-04-03T17:23:02;11.50;;;6.10;;
72117;SDS011;59992;47.490;8.736;2023-04-03T17:25:52;19.60;;;9.60;;
72117;SDS011;59992;47.490;8.736;2023-04-03T17:28:42;8.30;;;4.80;;
72117;SDS011;59992;47.490;8.736;2023-04-03T17:31:32;5.70;;;3.90;;
72117;SDS011;59992;47.490;8.736;2023-04-03T17:34:23;4.80;;;2.80;;
72117;SDS011;59992;47.490;8.736;2023-04-03T17:37:13;5.30;;;2.90;;